Time;durP1;ratioP1;P1;durP2;ratioP2;P2;SDS_P1;SDS_P2;PMS_P1;PMS_P2;Temp;Humidity;BMP_temperature;BMP_pressure;BME280_temperature;BME280_humidity;BME280_pressure;Samples;Min_cycle;Max_cycle;Signal;HPM_P1;HPM_P2
2023/12/26 03:18:42;;;;;;;6.60;4.70;;;;;;;2.15;100.00;100476.41;104150;1279;599884;-78
2023/12/26 03:21:14;;;;;;;7.40;5.10;;;;;;;2.16;100.00;100485.33;106159;1259;60915;-78
2023/12/26 03:23:43;;;;;;;8.50;6.30;;;;;;;2.19;100.00;100490.85;106057;1269;60868;-78
2023/12/26 03:26:13;;;;;;;6.80;5.50;;;;;;;2.23;100.00;100497.03;106133;1259;72730;-78
2023/12/26 03:28:42;;;;;;;8.20;5.60;;;;;;;2.33;100.00;100500.21;106510;1255;72827;-82
2023/12/26 03:31:14;;;;;;;7.70;5.50;;;;;;;2.38;100.00;100506.58;106040;1249;186516;-80
2023/12/26 03:33:43;;;;;;;7.50;5.80;;;;;;;2.46;100.00;100509.70;106867;1245;74228;-79
2023/12/26 03:36:12;;;;;;;7.10;4.70;;;;;;;2.44;100.00;100509.06;106753;1249;59025;-79
2023/12/26 03:38:45;;;;;;;7.60;4.40;;;;;;;2.41;100.00;100506.60;106693;1250;58328;-80
2023/12/26 03:41:14;;;;;;;6.20;4.80;;;;;;;2.43;100.00;100512.55;106666;1249;72257;-80
2023/12/26 03:43:45;;;;;;;7.30;4.80;;;;;;;2.50;100.00;100515.02;106696;1257;71541;-80
2023/12/26 03:46:14;;;;;;;6.70;4.50;;;;;;;2.59;100.00;100509.81;106977;1248;68908;-77
2023/12/26 03:48:43;;;;;;;5.20;3.90;;;;;;;2.62;100.00;100510.35;106816;1246;73091;-80
2023/12/26 03:51:14;;;;;;;4.90;3.80;;;;;;;2.64;100.00;100511.80;106881;1249;61921;-79
2023/12/26 03:53:44;;;;;;;7.60;4.00;;;;;;;2.65;100.00;100513.51;107053;1244;60930;-77
2023/12/26 03:56:13;;;;;;;6.00;4.20;;;;;;;2.70;100.00;100518.65;107167;1247;73733;-77
2023/12/26 03:58:43;;;;;;;8.30;4.30;;;;;;;2.68;100.00;100520.77;106875;1250;72898;-81
2023/12/26 04:01:13;;;;;;;7.00;4.30;;;;;;;2.64;100.00;100519.91;106992;1249;70155;-78
2023/12/26 04:03:43;;;;;;;6.00;3.90;;;;;;;2.60;100.00;100527.84;106836;1249;73655;-78
2023/12/26 04:06:12;;;;;;;5.60;3.70;;;;;;;2.55;100.00;100528.39;106920;1254;63069;-79
2023/12/26 04:08:43;;;;;;;8.30;4.10;;;;;;;2.46;100.00;100531.51;106730;1247;58446;-78
2023/12/26 04:11:12;;;;;;;6.40;4.20;;;;;;;2.40;100.00;100538.95;106906;1247;72431;-79
2023/12/26 04:13:42;;;;;;;7.70;4.60;;;;;;;2.36;100.00;100541.36;106824;1245;72815;-79
2023/12/26 04:16:11;;;;;;;13.50;7.40;;;;;;;2.37;100.00;100539.93;106845;1243;71096;-79
2023/12/26 04:18:40;;;;;;;11.90;8.00;;;;;;;2.39;100.00;100540.73;106665;1248;74466;-79
2023/12/26 04:21:09;;;;;;;10.30;7.00;;;;;;;2.42;100.00;100538.72;106817;1242;59147;-78
2023/12/26 04:23:39;;;;;;;10.90;6.00;;;;;;;2.43;100.00;100540.05;106902;1254;57467;-79
2023/12/26 04:26:08;;;;;;;8.70;5.30;;;;;;;2.48;100.00;100542.23;106781;1256;63412;-78
2023/12/26 04:28:37;;;;;;;9.30;5.60;;;;;;;2.61;100.00;100543.09;106893;1243;62738;-78
2023/12/26 04:31:06;;;;;;;6.80;4.70;;;;;;;2.74;100.00;100540.83;106716;1256;69954;-78
2023/12/26 04:33:36;;;;;;;8.00;5.00;;;;;;;2.83;100.00;100543.02;106769;1247;74774;-79
2023/12/26 04:36:06;;;;;;;6.80;4.60;;;;;;;2.84;100.00;100541.58;106948;1246;60125;-79
2023/12/26 04:38:35;;;;;;;5.70;3.90;;;;;;;2.82;100.00;100539.61;106766;1247;59114;-79
2023/12/26 04:41:11;;;;;;;7.20;4.40;;;;;;;2.84;100.00;100537.63;106948;1247;61338;-79
2023/12/26 04:43:40;;;;;;;4.60;3.70;;;;;;;2.81;100.00;100538.42;107071;1254;70090;-79
2023/12/26 04:46:20;;;;;;;4.00;3.30;;;;;;;2.79;100.00;100536.48;106766;1250;59485;-80
2023/12/26 04:48:50;;;;;;;5.70;3.40;;;;;;;2.79;100.00;100536.65;107050;1247;62873;-78
2023/12/26 04:51:20;;;;;;;7.10;4.30;;;;;;;2.76;100.00;100538.83;107109;1248;61290;-78
2023/12/26 04:53:50;;;;;;;6.90;4.80;;;;;;;2.77;100.00;100543.61;106933;1247;59089;-78
2023/12/26 04:56:20;;;;;;;6.60;3.80;;;;;;;2.75;100.00;100541.95;106989;1245;61956;-78
2023/12/26 04:58:52;;;;;;;6.90;4.70;;;;;;;2.70;100.00;100543.40;107013;1255;62089;-78
2023/12/26 05:01:20;;;;;;;6.70;4.40;;;;;;;2.65;100.00;100554.77;107266;1243;70358;-78
2023/12/26 05:03:50;;;;;;;5.70;4.00;;;;;;;2.60;100.00;100553.45;107110;1243;74975;-78
2023/12/26 05:06:19;;;;;;;10.10;5.60;;;;;;;2.55;100.00;100557.62;107034;1247;59017;-79
2023/12/26 05:08:49;;;;;;;7.30;4.70;;;;;;;2.51;100.00;100561.38;107216;1245;59132;-79
2023/12/26 05:11:24;;;;;;;6.90;4.50;;;;;;;2.45;100.00;100570.40;107192;1242;72906;-79
2023/12/26 05:13:53;;;;;;;7.10;4.50;;;;;;;2.39;100.00;100569.79;107158;1250;61128;-78
2023/12/26 05:16:22;;;;;;;8.10;4.50;;;;;;;2.36;100.00;100571.44;107427;1244;59017;-79
2023/12/26 05:18:51;;;;;;;9.40;6.30;;;;;;;2.35;100.00;100576.11;107252;1255;73101;-79
2023/12/26 05:21:22;;;;;;;10.50;6.50;;;;;;;2.38;100.00;100576.86;107302;1245;57932;-79
2023/12/26 05:23:51;;;;;;;8.80;5.60;;;;;;;2.43;100.00;100578.55;107241;1247;59018;-79
2023/12/26 05:26:23;;;;;;;9.10;5.20;;;;;;;2.42;100.00;100570.70;107146;1247;62029;-79
2023/12/26 05:28:51;;;;;;;9.90;5.70;;;;;;;2.39;100.00;100574.24;107151;1247;71394;-79
2023/12/26 05:31:20;;;;;;;10.00;5.80;;;;;;;2.34;100.00;100576.15;107243;1245;70244;-79
2023/12/26 05:33:49;;;;;;;10.30;6.30;;;;;;;2.27;100.00;100577.33;107301;1244;73455;-79
2023/12/26 05:36:18;;;;;;;9.10;5.70;;;;;;;2.19;100.00;100581.42;107121;1247;61858;-78
2023/12/26 05:38:48;;;;;;;10.90;7.00;;;;;;;2.27;100.00;100590.72;107171;1245;60051;-79
2023/12/26 05:41:18;;;;;;;8.00;5.60;;;;;;;2.23;100.00;100590.89;107125;1245;72613;-80
2023/12/26 05:43:47;;;;;;;11.70;6.80;;;;;;;2.20;100.00;100592.37;107282;1243;72406;-80
2023/12/26 05:46:17;;;;;;;16.90;9.20;;;;;;;2.16;100.00;100588.39;107285;1247;60276;-81
2023/12/26 05:48:46;;;;;;;20.40;10.50;;;;;;;2.16;100.00;100588.59;107405;1245;74213;-80
2023/12/26 05:51:15;;;;;;;19.90;10.00;;;;;;;2.17;100.00;100593.16;108060;1248;58897;-78
2023/12/26 05:53:45;;;;;;;14.10;8.00;;;;;;;2.21;100.00;100594.75;107579;1247;59044;-78
2023/12/26 05:56:14;;;;;;;15.40;8.80;;;;;;;2.25;100.00;100592.33;107459;1244;72283;-78
2023/12/26 05:58:44;;;;;;;15.00;8.50;;;;;;;2.24;100.00;100596.83;107813;1243;72674;-77
2023/12/26 06:01:13;;;;;;;14.30;8.30;;;;;;;2.23;100.00;100600.67;108494;1247;70454;-77
2023/12/26 06:03:43;;;;;;;18.70;9.50;;;;;;;2.22;100.00;100600.87;108049;1244;73173;-79
2023/12/26 06:06:12;;;;;;;13.70;8.40;;;;;;;2.22;100.00;100599.17;108084;1247;57462;-78
2023/12/26 06:08:42;;;;;;;9.00;5.00;;;;;;;2.25;100.00;100602.48;107545;1244;58135;-78
2023/12/26 06:11:11;;;;;;;10.80;6.20;;;;;;;2.30;100.00;100610.70;107556;1247;72680;-81
2023/12/26 06:13:41;;;;;;;9.20;5.90;;;;;;;2.33;100.00;100615.40;107450;1244;61858;-80
2023/12/26 06:16:10;;;;;;;9.90;6.10;;;;;;;2.36;100.00;100616.61;107108;1243;70978;-81
2023/12/26 06:18:40;;;;;;;13.00;7.90;;;;;;;2.38;100.00;100612.09;107361;1251;73593;-79
2023/12/26 06:21:09;;;;;;;26.00;13.90;;;;;;;2.40;100.00;100612.38;107346;1244;57881;-79
2023/12/26 06:23:39;;;;;;;46.80;22.50;;;;;;;2.39;100.00;100609.64;107098;1247;60156;-77
2023/12/26 06:26:09;;;;;;;31.50;17.40;;;;;;;2.42;100.00;100611.59;107098;1248;73561;-77
2023/12/26 06:28:38;;;;;;;36.10;22.20;;;;;;;2.48;100.00;100614.96;107165;1247;61325;-80
2023/12/26 06:31:13;;;;;;;29.90;17.90;;;;;;;2.56;100.00;100616.52;107412;1243;70354;-77
2023/12/26 06:33:43;;;;;;;27.00;16.40;;;;;;;2.62;100.00;100613.70;107071;1244;63501;-77
2023/12/26 06:36:13;;;;;;;18.40;10.30;;;;;;;2.70;100.00;100619.37;107037;1248;58983;-79
2023/12/26 06:38:43;;;;;;;17.30;9.90;;;;;;;2.81;100.00;100616.68;107241;1247;58991;-78
2023/12/26 06:41:12;;;;;;;20.40;10.30;;;;;;;2.93;100.00;100616.73;107055;1250;61176;-77
2023/12/26 06:43:41;;;;;;;15.30;9.20;;;;;;;3.04;100.00;100629.86;107473;1242;71907;-78
2023/12/26 06:46:10;;;;;;;16.10;8.40;;;;;;;3.07;100.00;100632.98;107273;1243;69583;-81
2023/12/26 06:48:41;;;;;;;13.10;7.40;;;;;;;3.14;100.00;100637.66;107312;1247;62693;-80
2023/12/26 06:51:11;;;;;;;25.30;14.50;;;;;;;3.21;100.00;100630.99;107333;1242;59040;-78
2023/12/26 06:53:40;;;;;;;10.10;5.90;;;;;;;3.26;100.00;100632.36;107253;1244;58943;-78
2023/12/26 06:56:09;;;;;;;13.70;8.70;;;;;;;3.30;100.00;100632.36;107113;1256;62756;-80
2023/12/26 06:58:39;;;;;;;15.40;8.70;;;;;;;3.35;100.00;100638.48;107202;1255;71034;-82
2023/12/26 07:01:13;;;;;;;14.60;9.00;;;;;;;3.39;100.00;100642.28;107030;1247;70788;-80
2023/12/26 07:03:43;;;;;;;16.40;9.00;;;;;;;3.47;100.00;100640.56;107213;1249;63674;-79
2023/12/26 07:06:12;;;;;;;17.10;9.30;;;;;;;3.53;100.00;100645.25;107274;1244;61143;-80
2023/12/26 07:08:41;;;;;;;15.70;10.10;;;;;;;3.61;100.00;100643.03;107239;1256;62050;-79
2023/12/26 07:11:10;;;;;;;15.20;9.60;;;;;;;3.65;100.00;100649.02;107297;1244;63354;-80
2023/12/26 07:13:39;;;;;;;17.60;10.30;;;;;;;3.71;100.00;100645.98;107379;1245;61583;-79
2023/12/26 07:16:08;;;;;;;16.60;10.20;;;;;;;3.77;100.00;100648.48;107154;1247;59846;-79
2023/12/26 07:18:37;;;;;;;16.20;9.70;;;;;;;3.86;100.00;100647.09;107272;1244;73813;-79
2023/12/26 07:21:06;;;;;;;16.90;10.10;;;;;;;3.97;100.00;100654.50;107334;1244;59499;-79
2023/12/26 07:23:35;;;;;;;18.10;12.80;;;;;;;4.12;100.00;100651.73;107221;1245;59703;-79
2023/12/26 07:26:05;;;;;;;24.00;15.00;;;;;;;4.28;100.00;100653.59;107208;1244;72737;-78
2023/12/26 07:28:33;;;;;;;32.50;21.40;;;;;;;4.41;100.00;100654.66;106895;1244;72832;-78
2023/12/26 07:31:03;;;;;;;37.10;25.50;;;;;;;4.61;100.00;100653.89;107148;1242;70985;-79
2023/12/26 07:33:32;;;;;;;32.60;21.00;;;;;;;4.81;100.00;100663.77;107071;1245;74324;-79
2023/12/26 07:36:01;;;;;;;20.40;15.30;;;;;;;5.00;100.00;100660.59;107192;1244;61679;-79
2023/12/26 07:38:30;;;;;;;23.60;16.20;;;;;;;5.29;100.00;100661.70;107202;1244;59250;-79
2023/12/26 07:40:59;;;;;;;17.90;11.60;;;;;;;5.52;100.00;100668.27;106983;1254;74429;-79
2023/12/26 07:43:28;;;;;;;18.50;12.30;;;;;;;5.78;100.00;100664.66;107007;1244;72496;-79
2023/12/26 07:45:57;;;;;;;19.00;12.40;;;;;;;6.07;100.00;100668.70;107030;1253;70835;-79
2023/12/26 07:48:27;;;;;;;19.40;12.80;;;;;;;6.30;100.00;100666.24;107518;1243;73857;-79
2023/12/26 07:50:56;;;;;;;21.50;14.70;;;;;;;6.53;100.00;100665.11;107891;1244;63404;-79
2023/12/26 07:53:25;;;;;;;21.50;13.40;;;;;;;6.79;100.00;100665.89;107794;1244;60666;-80
2023/12/26 07:55:53;;;;;;;19.70;14.50;;;;;;;6.99;100.00;100661.95;107152;1242;62428;-82
2023/12/26 07:58:34;;;;;;;21.90;14.60;;;;;;;7.25;100.00;100666.89;107903;1243;71710;-81
2023/12/26 08:01:04;;;;;;;18.90;13.50;;;;;;;7.45;100.00;100672.61;107245;1244;60991;-81
2023/12/26 08:03:39;;;;;;;22.50;14.20;;;;;;;7.64;100.00;100670.77;106931;1256;72927;-81
2023/12/26 08:06:08;;;;;;;25.50;15.50;;;;;;;7.88;100.00;100667.20;107098;1256;59089;-79
2023/12/26 08:08:43;;;;;;;24.30;13.50;;;;;;;8.09;100.00;100672.11;107060;1249;60383;-82
2023/12/26 08:11:12;;;;;;;23.00;14.20;;;;;;;8.27;100.00;100672.06;107375;1255;73465;-81
2023/12/26 08:13:44;;;;;;;22.00;13.10;;;;;;;8.48;100.00;100674.73;107258;1247;72929;-80
2023/12/26 08:16:13;;;;;;;32.80;16.20;;;;;;;8.72;100.00;100675.45;107199;1244;70135;-80
2023/12/26 08:18:45;;;;;;;50.50;21.90;;;;;;;8.97;100.00;100677.96;107339;1244;74308;-80
2023/12/26 08:21:14;;;;;;;37.80;22.00;;;;;;;9.19;100.00;100676.29;107302;1244;63143;-80
2023/12/26 08:23:43;;;;;;;27.30;15.30;;;;;;;9.41;100.00;100678.45;107346;1244;61754;-81
2023/12/26 08:26:12;;;;;;;23.20;13.40;;;;;;;9.63;100.00;100681.83;107169;1256;73545;-81
2023/12/26 08:28:43;;;;;;;13.60;8.50;;;;;;;9.85;100.00;100679.61;107309;1243;72355;-81
2023/12/26 08:31:12;;;;;;;10.30;7.50;;;;;;;10.05;100.00;100680.46;107422;1244;60127;-81
2023/12/26 08:33:41;;;;;;;8.30;6.30;;;;;;;10.27;100.00;100679.99;107205;1244;73281;-81
2023/12/26 08:36:10;;;;;;;7.60;6.00;;;;;;;10.45;100.00;100677.66;107326;1244;58855;-80
2023/12/26 08:38:41;;;;;;;11.50;7.80;;;;;;;10.65;100.00;100670.98;107362;1244;58754;-80
2023/12/26 08:41:13;;;;;;;8.20;5.80;;;;;;;10.83;100.00;100671.04;107316;1244;62212;-80
2023/12/26 08:43:42;;;;;;;8.90;5.20;;;;;;;10.96;100.00;100672.52;107338;1243;71239;-81
2023/12/26 08:46:10;;;;;;;11.90;7.70;;;;;;;11.11;100.00;100662.85;107240;1255;69436;-80
2023/12/26 08:48:40;;;;;;;10.20;7.00;;;;;;;11.20;100.00;100661.11;107168;1247;63246;-80
2023/12/26 08:51:09;;;;;;;13.10;8.40;;;;;;;11.27;100.00;100657.94;107100;1247;61059;-80
2023/12/26 08:53:38;;;;;;;9.00;5.70;;;;;;;11.36;100.00;100654.84;107257;1244;58868;-81
2023/12/26 08:56:07;;;;;;;20.80;13.90;;;;;;;11.44;100.00;100652.30;107117;1247;64284;-81
2023/12/26 08:58:37;;;;;;;8.70;6.10;;;;;;;11.54;100.00;100648.36;107268;1247;73093;-79
2023/12/26 09:01:09;;;;;;;14.20;7.30;;;;;;;11.71;100.00;100646.38;107341;1243;71988;-81
2023/12/26 09:03:38;;;;;;;15.20;9.60;;;;;;;11.86;100.00;100646.13;107024;1255;73235;-84
2023/12/26 09:06:13;;;;;;;13.80;9.70;;;;;;;11.96;100.00;100649.54;107235;1244;62569;-81
2023/12/26 09:08:44;;;;;;;9.70;5.50;;;;;;;12.05;100.00;100645.98;107221;1245;61365;-80
2023/12/26 09:11:14;;;;;;;17.30;10.20;;;;;;;12.16;100.00;100645.45;107385;1244;73042;-80
2023/12/26 09:13:45;;;;;;;5.80;3.90;;;;;;;12.33;100.00;100643.59;107309;1244;72011;-80
2023/12/26 09:16:14;;;;;;;8.20;4.40;;;;;;;12.50;100.00;100635.60;107076;1256;70175;-80
2023/12/26 09:18:46;;;;;;;6.40;4.00;;;;;;;12.65;100.00;100635.41;107075;1249;71909;-80
2023/12/26 09:21:18;;;;;;;7.60;5.00;;;;;;;12.83;100.00;100631.27;107106;1248;59000;-82
2023/12/26 09:23:47;;;;;;;6.30;4.50;;;;;;;13.01;100.00;100627.13;107309;1243;60045;-81
2023/12/26 09:26:24;;;;;;;9.00;5.40;;;;;;;13.19;100.00;100622.71;107342;1256;63315;-81
2023/12/26 09:28:53;;;;;;;7.50;4.50;;;;;;;13.35;100.00;100623.98;107947;1244;62146;-82
2023/12/26 09:31:23;;;;;;;7.10;4.70;;;;;;;13.47;100.00;100614.88;107417;1244;59795;-82
2023/12/26 09:33:54;;;;;;;8.90;5.10;;;;;;;13.60;100.00;100610.13;107370;1247;71977;-81
2023/12/26 09:36:26;;;;;;;8.80;5.80;;;;;;;13.60;100.00;100612.89;107301;1244;60783;-81
2023/12/26 09:38:55;;;;;;;7.40;4.80;;;;;;;13.70;100.00;100614.98;107350;1256;60284;-80
2023/12/26 09:41:25;;;;;;;7.90;4.90;;;;;;;13.83;100.00;100613.69;107368;1246;73993;-80
2023/12/26 09:43:56;;;;;;;7.60;4.30;;;;;;;13.88;100.00;100607.31;107344;1244;61239;-81
2023/12/26 09:46:28;;;;;;;6.30;3.90;;;;;;;13.87;100.00;100602.86;107384;1244;69456;-81
2023/12/26 09:48:58;;;;;;;6.70;4.00;;;;;;;13.86;100.00;100592.91;107447;1244;63720;-82
2023/12/26 09:51:45;;;;;;;4.90;3.40;;;;;;;13.87;100.00;100584.12;107247;1243;58955;-81
2023/12/26 09:54:16;;;;;;;5.20;3.70;;;;;;;13.85;100.00;100576.27;107070;1250;61073;-81
2023/12/26 09:56:45;;;;;;;6.80;4.10;;;;;;;13.87;100.00;100566.96;107070;1247;63474;-82
2023/12/26 09:59:21;;;;;;;5.80;3.70;;;;;;;13.89;100.00;100565.52;107249;1244;71459;-82
2023/12/26 10:01:50;;;;;;;6.20;3.60;;;;;;;13.92;100.00;100564.39;107061;1243;69238;-82
2023/12/26 10:04:26;;;;;;;5.90;3.50;;;;;;;13.96;100.00;100565.73;107017;1247;63124;-81
2023/12/26 10:06:55;;;;;;;7.60;5.10;;;;;;;14.01;100.00;100561.65;107005;1243;59978;-81
2023/12/26 10:09:32;;;;;;;7.10;5.10;;;;;;;14.02;100.00;100556.50;107170;1247;58323;-83
2023/12/26 10:12:09;;;;;;;5.80;4.20;;;;;;;14.13;100.00;100552.77;107192;1254;72747;-83
2023/12/26 10:14:38;;;;;;;6.90;3.60;;;;;;;14.18;100.00;100547.89;106852;1248;71949;-84
2023/12/26 10:17:12;;;;;;;6.40;3.70;;;;;;;14.23;100.00;100543.73;107023;1243;69354;-82
2023/12/26 10:19:41;;;;;;;8.40;4.60;;;;;;;14.27;100.00;100547.56;107050;1249;63629;-82
2023/12/26 10:22:17;;;;;;;5.70;3.90;;;;;;;14.34;100.00;100543.60;107106;1246;61259;-84
2023/12/26 10:24:47;;;;;;;5.70;3.40;;;;;;;14.50;100.00;100541.27;107004;1248;61102;-79
2023/12/26 10:27:16;;;;;;;13.60;12.30;;;;;;;14.57;100.00;100546.61;106960;1247;62640;-80
2023/12/26 10:30:00;;;;;;;4.80;3.50;;;;;;;14.68;100.00;100547.58;106993;1256;61879;-82
2023/12/26 10:32:31;;;;;;;7.20;4.80;;;;;;;14.81;100.00;100540.77;106994;1243;59992;-82
2023/12/26 10:35:15;;;;;;;7.30;3.70;;;;;;;14.89;100.00;100538.63;107027;1247;63060;-82
2023/12/26 10:37:43;;;;;;;;;;;;;;;14.92;100.00;100540.27;107017;1247;59031;-82
2023/12/26 10:40:19;;;;;;;6.90;3.60;;;;;;;15.01;100.00;100535.56;107035;1243;61455;-80
2023/12/26 10:42:51;;;;;;;6.60;4.10;;;;;;;15.13;100.00;100530.04;106975;1243;73941;-83
2023/12/26 10:45:21;;;;;;;8.30;5.60;;;;;;;15.21;100.00;100525.63;106890;1244;70925;-83
2023/12/26 10:48:24;;;;;;;7.70;5.20;;;;;;;15.30;100.00;100523.63;106939;1248;70772;-83
2023/12/26 10:51:16;;;;;;;8.50;4.80;;;;;;;15.40;100.00;100520.42;107016;1247;73809;-83
2023/12/26 10:54:00;;;;;;;8.30;4.40;;;;;;;15.42;100.00;100503.02;107164;1246;59191;-79
2023/12/26 10:57:00;;;;;;;7.60;3.90;;;;;;;15.69;100.00;100507.90;106969;1250;59444;-83
2023/12/26 22:58:09;;;;;;;12.00;7.10;;;;;;;8.04;100.00;100606.73;104584;1278;600201;-76
2023/12/26 23:00:38;;;;;;;8.70;5.30;;;;;;;8.04;100.00;100611.08;106259;1267;57435;-76
2023/12/26 23:03:08;;;;;;;11.30;5.80;;;;;;;8.09;100.00;100616.99;106172;1256;60713;-78
2023/12/26 23:05:37;;;;;;;7.90;5.20;;;;;;;8.17;100.00;100623.58;106506;1253;61034;-76
2023/12/26 23:08:06;;;;;;;8.80;4.80;;;;;;;8.20;100.00;100606.72;106432;1264;61856;-76
2023/12/26 23:10:35;;;;;;;6.80;4.40;;;;;;;8.54;100.00;100628.50;106894;1251;59576;-76
2023/12/26 23:13:04;;;;;;;10.00;4.30;;;;;;;8.73;100.00;100634.06;106914;1258;63538;-81
2023/12/26 23:15:33;;;;;;;7.70;4.20;;;;;;;8.90;100.00;100634.85;107143;1247;57463;-78
2023/12/26 23:18:03;;;;;;;9.00;4.40;;;;;;;9.07;100.00;100628.97;107051;1258;57414;-80
2023/12/26 23:20:33;;;;;;;5.80;3.80;;;;;;;9.26;100.00;100631.17;107041;1258;71911;-79
2023/12/26 23:23:02;;;;;;;8.20;4.00;;;;;;;9.46;100.00;100637.44;107094;1246;72525;-79
2023/12/26 23:25:31;;;;;;;6.70;4.10;;;;;;;9.58;100.00;100636.80;107150;1248;59847;-79
2023/12/26 23:28:00;;;;;;;10.70;4.10;;;;;;;9.68;100.00;100640.31;107119;1254;63490;-79
2023/12/26 23:30:31;;;;;;;7.50;4.40;;;;;;;9.76;100.00;100648.95;107002;1252;62184;-76
2023/12/26 23:33:03;;;;;;;9.90;4.70;;;;;;;9.80;100.00;100651.98;107086;1256;61696;-77
2023/12/26 23:35:32;;;;;;;9.60;4.70;;;;;;;9.78;100.00;100650.55;107106;1247;63941;-80
2023/12/26 23:38:01;;;;;;;7.80;4.90;;;;;;;9.75;100.00;100651.27;107015;1244;62436;-79
2023/12/26 23:40:30;;;;;;;7.80;5.20;;;;;;;9.67;100.00;100655.64;106893;1244;70799;-81
2023/12/26 23:42:59;;;;;;;10.60;5.80;;;;;;;9.59;100.00;100659.85;107115;1258;73884;-80
2023/12/26 23:45:29;;;;;;;9.50;5.10;;;;;;;9.51;100.00;100664.94;107087;1247;62938;-84
2023/12/26 23:47:57;;;;;;;14.20;6.30;;;;;;;9.42;100.00;100667.50;106988;1247;61500;-82
2023/12/26 23:50:28;;;;;;;9.40;5.40;;;;;;;9.33;100.00;100662.30;106996;1246;73817;-80
2023/12/26 23:53:01;;;;;;;9.90;5.80;;;;;;;9.25;100.00;100659.05;106993;1251;72565;-82
2023/12/26 23:55:30;;;;;;;10.30;5.70;;;;;;;9.19;100.00;100663.66;107051;1247;60240;-82
2023/12/26 23:57:59;;;;;;;9.30;5.60;;;;;;;9.16;100.00;100663.86;107044;1249;62684;-78
